sensor_id;sensor_type;location;lat;lon;timestamp;P1;durP1;ratioP1;P2;durP2;ratioP2
52368;SDS011;38298;50.346;3.526;2023-06-22T00:01:52;11.80;;;5.45;;
52368;SDS011;38298;50.346;3.526;2023-06-22T00:04:18;9.82;;;5.60;;
52368;SDS011;38298;50.346;3.526;2023-06-22T00:06:44;11.93;;;5.57;;
52368;SDS011;38298;50.346;3.526;2023-06-22T00:09:10;8.77;;;4.70;;
52368;SDS011;38298;50.346;3.526;2023-06-22T00:11:37;9.35;;;5.55;;
52368;SDS011;38298;50.346;3.526;2023-06-22T00:14:03;9.07;;;5.10;;
52368;SDS011;38298;50.346;3.526;2023-06-22T00:16:30;9.00;;;5.05;;
52368;SDS011;38298;50.346;3.526;2023-06-22T00:18:57;15.18;;;5.00;;
52368;SDS011;38298;50.346;3.526;2023-06-22T00:21:25;7.30;;;5.03;;
52368;SDS011;38298;50.346;3.526;2023-06-22T00:23:51;8.45;;;4.88;;
52368;SDS011;38298;50.346;3.526;2023-06-22T00:26:17;8.52;;;4.80;;
52368;SDS011;38298;50.346;3.526;2023-06-22T00:28:43;9.40;;;5.30;;
52368;SDS011;38298;50.346;3.526;2023-06-22T00:31:10;10.98;;;5.28;;
52368;SDS011;38298;50.346;3.526;2023-06-22T00:33:36;13.38;;;5.63;;
52368;SDS011;38298;50.346;3.526;2023-06-22T00:36:02;15.07;;;6.63;;
52368;SDS011;38298;50.346;3.526;2023-06-22T00:38:29;17.38;;;6.47;;
52368;SDS011;38298;50.346;3.526;2023-06-22T00:40:55;9.88;;;5.57;;
52368;SDS011;38298;50.346;3.526;2023-06-22T00:43:21;10.23;;;5.55;;
52368;SDS011;38298;50.346;3.526;2023-06-22T00:45:47;13.40;;;5.53;;
52368;SDS011;38298;50.346;3.526;2023-06-22T00:48:13;7.30;;;4.60;;
52368;SDS011;38298;50.346;3.526;2023-06-22T00:50:40;10.93;;;5.35;;
52368;SDS011;38298;50.346;3.526;2023-06-22T00:53:07;8.90;;;4.47;;
52368;SDS011;38298;50.346;3.526;2023-06-22T00:55:36;7.95;;;4.07;;
52368;SDS011;38298;50.346;3.526;2023-06-22T00:58:04;7.70;;;4.45;;
52368;SDS011;38298;50.346;3.526;2023-06-22T01:00:33;17.33;;;5.25;;
52368;SDS011;38298;50.346;3.526;2023-06-22T01:02:59;11.65;;;4.50;;
52368;SDS011;38298;50.346;3.526;2023-06-22T01:05:25;7.05;;;3.92;;
52368;SDS011;38298;50.346;3.526;2023-06-22T01:10:25;5.90;;;4.05;;
52368;SDS011;38298;50.346;3.526;2023-06-22T01:12:53;9.25;;;3.97;;
52368;SDS011;38298;50.346;3.526;2023-06-22T01:15:31;9.00;;;4.53;;
52368;SDS011;38298;50.346;3.526;2023-06-22T01:17:58;8.63;;;3.97;;
52368;SDS011;38298;50.346;3.526;2023-06-22T01:20:25;7.70;;;3.30;;
52368;SDS011;38298;50.346;3.526;2023-06-22T01:23:12;6.88;;;3.90;;
52368;SDS011;38298;50.346;3.526;2023-06-22T01:25:48;11.85;;;4.57;;
52368;SDS011;38298;50.346;3.526;2023-06-22T01:31:03;14.25;;;4.55;;
52368;SDS011;38298;50.346;3.526;2023-06-22T01:33:34;10.27;;;3.95;;
52368;SDS011;38298;50.346;3.526;2023-06-22T01:36:01;11.68;;;3.92;;
52368;SDS011;38298;50.346;3.526;2023-06-22T01:38:28;6.70;;;3.90;;
52368;SDS011;38298;50.346;3.526;2023-06-22T01:40:54;6.95;;;3.53;;
52368;SDS011;38298;50.346;3.526;2023-06-22T01:43:21;5.70;;;3.60;;
52368;SDS011;38298;50.346;3.526;2023-06-22T01:45:48;6.30;;;3.88;;
52368;SDS011;38298;50.346;3.526;2023-06-22T01:48:29;9.00;;;3.88;;
52368;SDS011;38298;50.346;3.526;2023-06-22T01:50:56;5.88;;;3.72;;
52368;SDS011;38298;50.346;3.526;2023-06-22T01:53:22;8.00;;;4.22;;
52368;SDS011;38298;50.346;3.526;2023-06-22T01:55:48;7.80;;;4.03;;
52368;SDS011;38298;50.346;3.526;2023-06-22T01:58:17;10.35;;;4.55;;
52368;SDS011;38298;50.346;3.526;2023-06-22T02:00:50;10.65;;;4.35;;
52368;SDS011;38298;50.346;3.526;2023-06-22T02:03:19;5.95;;;3.88;;
52368;SDS011;38298;50.346;3.526;2023-06-22T02:05:52;6.32;;;4.43;;
52368;SDS011;38298;50.346;3.526;2023-06-22T02:08:24;7.10;;;3.78;;
52368;SDS011;38298;50.346;3.526;2023-06-22T02:13:16;11.80;;;4.90;;
52368;SDS011;38298;50.346;3.526;2023-06-22T02:15:43;13.07;;;4.53;;
52368;SDS011;38298;50.346;3.526;2023-06-22T02:18:09;10.20;;;4.80;;
52368;SDS011;38298;50.346;3.526;2023-06-22T02:20:39;12.00;;;4.10;;
52368;SDS011;38298;50.346;3.526;2023-06-22T02:23:05;8.02;;;4.40;;
52368;SDS011;38298;50.346;3.526;2023-06-22T02:25:32;10.27;;;4.70;;
52368;SDS011;38298;50.346;3.526;2023-06-22T02:27:58;7.28;;;3.80;;
52368;SDS011;38298;50.346;3.526;2023-06-22T02:30:24;10.00;;;4.07;;
52368;SDS011;38298;50.346;3.526;2023-06-22T02:32:50;13.25;;;4.30;;
52368;SDS011;38298;50.346;3.526;2023-06-22T02:35:23;10.75;;;4.05;;
52368;SDS011;38298;50.346;3.526;2023-06-22T02:37:49;12.38;;;4.03;;
52368;SDS011;38298;50.346;3.526;2023-06-22T02:40:16;10.40;;;4.40;;
52368;SDS011;38298;50.346;3.526;2023-06-22T02:42:43;12.07;;;4.45;;
52368;SDS011;38298;50.346;3.526;2023-06-22T02:45:09;8.75;;;3.95;;
52368;SDS011;38298;50.346;3.526;2023-06-22T02:47:35;7.45;;;3.30;;
52368;SDS011;38298;50.346;3.526;2023-06-22T02:50:01;6.68;;;3.38;;
52368;SDS011;38298;50.346;3.526;2023-06-22T02:52:27;6.13;;;3.30;;
52368;SDS011;38298;50.346;3.526;2023-06-22T02:54:53;6.97;;;3.47;;
52368;SDS011;38298;50.346;3.526;2023-06-22T02:57:19;8.32;;;3.78;;
52368;SDS011;38298;50.346;3.526;2023-06-22T02:59:45;10.00;;;3.65;;
52368;SDS011;38298;50.346;3.526;2023-06-22T03:02:11;6.88;;;3.50;;
52368;SDS011;38298;50.346;3.526;2023-06-22T03:04:37;8.65;;;4.10;;
52368;SDS011;38298;50.346;3.526;2023-06-22T03:07:04;6.90;;;3.58;;
52368;SDS011;38298;50.346;3.526;2023-06-22T03:09:30;7.68;;;4.03;;
52368;SDS011;38298;50.346;3.526;2023-06-22T03:11:56;11.18;;;3.92;;
52368;SDS011;38298;50.346;3.526;2023-06-22T03:14:22;7.57;;;4.10;;
52368;SDS011;38298;50.346;3.526;2023-06-22T03:16:48;7.60;;;4.03;;
52368;SDS011;38298;50.346;3.526;2023-06-22T03:19:14;9.75;;;4.57;;
52368;SDS011;38298;50.346;3.526;2023-06-22T03:21:41;7.93;;;4.13;;
52368;SDS011;38298;50.346;3.526;2023-06-22T03:24:07;7.40;;;3.67;;
52368;SDS011;38298;50.346;3.526;2023-06-22T03:26:33;10.45;;;4.25;;
52368;SDS011;38298;50.346;3.526;2023-06-22T03:29:00;7.13;;;3.67;;
52368;SDS011;38298;50.346;3.526;2023-06-22T03:31:26;10.82;;;4.53;;
52368;SDS011;38298;50.346;3.526;2023-06-22T03:33:52;6.22;;;3.80;;
52368;SDS011;38298;50.346;3.526;2023-06-22T03:36:18;7.70;;;4.10;;
52368;SDS011;38298;50.346;3.526;2023-06-22T03:38:48;12.07;;;4.13;;
52368;SDS011;38298;50.346;3.526;2023-06-22T03:41:14;7.25;;;4.15;;
52368;SDS011;38298;50.346;3.526;2023-06-22T03:43:40;6.70;;;3.92;;
52368;SDS011;38298;50.346;3.526;2023-06-22T03:46:06;7.75;;;4.22;;
52368;SDS011;38298;50.346;3.526;2023-06-22T03:48:32;8.75;;;4.45;;
52368;SDS011;38298;50.346;3.526;2023-06-22T03:50:59;7.22;;;4.50;;
52368;SDS011;38298;50.346;3.526;2023-06-22T03:53:25;6.93;;;4.30;;
52368;SDS011;38298;50.346;3.526;2023-06-22T03:55:51;7.43;;;3.85;;
52368;SDS011;38298;50.346;3.526;2023-06-22T03:58:18;7.40;;;4.18;;
52368;SDS011;38298;50.346;3.526;2023-06-22T04:00:47;10.50;;;4.95;;
52368;SDS011;38298;50.346;3.526;2023-06-22T04:03:14;9.63;;;4.13;;
52368;SDS011;38298;50.346;3.526;2023-06-22T04:05:40;12.35;;;4.35;;
52368;SDS011;38298;50.346;3.526;2023-06-22T04:08:06;11.52;;;5.20;;
52368;SDS011;38298;50.346;3.526;2023-06-22T04:10:33;8.05;;;3.78;;
52368;SDS011;38298;50.346;3.526;2023-06-22T04:12:59;9.20;;;5.03;;
52368;SDS011;38298;50.346;3.526;2023-06-22T04:15:25;8.95;;;4.45;;
52368;SDS011;38298;50.346;3.526;2023-06-22T04:17:54;10.52;;;4.68;;
52368;SDS011;38298;50.346;3.526;2023-06-22T04:20:20;11.48;;;5.20;;
52368;SDS011;38298;50.346;3.526;2023-06-22T04:22:46;8.85;;;5.03;;
52368;SDS011;38298;50.346;3.526;2023-06-22T04:25:12;9.10;;;4.93;;
52368;SDS011;38298;50.346;3.526;2023-06-22T04:27:38;6.90;;;4.53;;
52368;SDS011;38298;50.346;3.526;2023-06-22T04:30:07;10.30;;;5.00;;
52368;SDS011;38298;50.346;3.526;2023-06-22T04:32:36;8.45;;;5.03;;
52368;SDS011;38298;50.346;3.526;2023-06-22T04:35:03;7.82;;;4.45;;
52368;SDS011;38298;50.346;3.526;2023-06-22T04:37:32;10.13;;;4.57;;
52368;SDS011;38298;50.346;3.526;2023-06-22T04:39:58;10.80;;;4.65;;
52368;SDS011;38298;50.346;3.526;2023-06-22T04:42:27;12.30;;;4.85;;
52368;SDS011;38298;50.346;3.526;2023-06-22T04:44:57;9.52;;;4.63;;
52368;SDS011;38298;50.346;3.526;2023-06-22T04:47:23;11.50;;;4.63;;
52368;SDS011;38298;50.346;3.526;2023-06-22T04:49:49;16.00;;;5.32;;
52368;SDS011;38298;50.346;3.526;2023-06-22T04:52:15;7.70;;;4.50;;
52368;SDS011;38298;50.346;3.526;2023-06-22T04:54:42;7.55;;;4.60;;
52368;SDS011;38298;50.346;3.526;2023-06-22T04:57:12;13.30;;;4.40;;
52368;SDS011;38298;50.346;3.526;2023-06-22T04:59:38;9.07;;;4.95;;
52368;SDS011;38298;50.346;3.526;2023-06-22T05:02:06;9.45;;;4.60;;
52368;SDS011;38298;50.346;3.526;2023-06-22T05:04:32;12.88;;;4.53;;
52368;SDS011;38298;50.346;3.526;2023-06-22T05:07:00;12.95;;;5.65;;
52368;SDS011;38298;50.346;3.526;2023-06-22T05:09:26;8.30;;;4.47;;
52368;SDS011;38298;50.346;3.526;2023-06-22T05:11:52;8.55;;;4.60;;
52368;SDS011;38298;50.346;3.526;2023-06-22T05:14:19;7.75;;;4.38;;
52368;SDS011;38298;50.346;3.526;2023-06-22T05:16:45;10.15;;;4.70;;
52368;SDS011;38298;50.346;3.526;2023-06-22T05:19:12;10.65;;;4.88;;
52368;SDS011;38298;50.346;3.526;2023-06-22T05:21:38;7.93;;;4.15;;
52368;SDS011;38298;50.346;3.526;2023-06-22T05:24:04;10.68;;;4.60;;
52368;SDS011;38298;50.346;3.526;2023-06-22T05:26:31;9.43;;;4.43;;
52368;SDS011;38298;50.346;3.526;2023-06-22T05:28:58;7.18;;;4.45;;
52368;SDS011;38298;50.346;3.526;2023-06-22T05:31:24;10.00;;;4.93;;
52368;SDS011;38298;50.346;3.526;2023-06-22T05:33:51;7.18;;;4.60;;
52368;SDS011;38298;50.346;3.526;2023-06-22T05:36:17;9.32;;;4.55;;
52368;SDS011;38298;50.346;3.526;2023-06-22T05:38:50;10.25;;;4.88;;
52368;SDS011;38298;50.346;3.526;2023-06-22T05:41:16;8.50;;;4.22;;
52368;SDS011;38298;50.346;3.526;2023-06-22T05:43:44;8.73;;;4.25;;
52368;SDS011;38298;50.346;3.526;2023-06-22T05:46:10;6.53;;;4.00;;
52368;SDS011;38298;50.346;3.526;2023-06-22T05:48:37;10.80;;;4.50;;
52368;SDS011;38298;50.346;3.526;2023-06-22T05:51:03;11.65;;;4.40;;
52368;SDS011;38298;50.346;3.526;2023-06-22T05:53:29;8.23;;;4.05;;
52368;SDS011;38298;50.346;3.526;2023-06-22T05:55:55;7.63;;;3.92;;
52368;SDS011;38298;50.346;3.526;2023-06-22T05:58:21;11.20;;;4.15;;
52368;SDS011;38298;50.346;3.526;2023-06-22T06:00:47;12.20;;;4.03;;
52368;SDS011;38298;50.346;3.526;2023-06-22T06:03:13;7.70;;;3.90;;
52368;SDS011;38298;50.346;3.526;2023-06-22T06:05:42;8.60;;;3.38;;
52368;SDS011;38298;50.346;3.526;2023-06-22T06:08:08;9.48;;;4.10;;
52368;SDS011;38298;50.346;3.526;2023-06-22T06:10:36;17.75;;;4.60;;
52368;SDS011;38298;50.346;3.526;2023-06-22T06:13:02;6.15;;;3.55;;
52368;SDS011;38298;50.346;3.526;2023-06-22T06:15:29;8.38;;;3.85;;
52368;SDS011;38298;50.346;3.526;2023-06-22T06:17:55;9.52;;;3.95;;
52368;SDS011;38298;50.346;3.526;2023-06-22T06:20:22;10.80;;;3.33;;
52368;SDS011;38298;50.346;3.526;2023-06-22T06:22:49;7.03;;;3.05;;
52368;SDS011;38298;50.346;3.526;2023-06-22T06:25:15;8.85;;;3.40;;
52368;SDS011;38298;50.346;3.526;2023-06-22T06:27:43;7.13;;;3.22;;
52368;SDS011;38298;50.346;3.526;2023-06-22T06:30:13;10.40;;;3.13;;
52368;SDS011;38298;50.346;3.526;2023-06-22T06:32:40;6.43;;;3.40;;
52368;SDS011;38298;50.346;3.526;2023-06-22T06:35:06;5.78;;;3.25;;
52368;SDS011;38298;50.346;3.526;2023-06-22T06:37:39;11.27;;;3.90;;
52368;SDS011;38298;50.346;3.526;2023-06-22T06:40:05;5.97;;;3.28;;
52368;SDS011;38298;50.346;3.526;2023-06-22T06:42:42;8.80;;;3.17;;
52368;SDS011;38298;50.346;3.526;2023-06-22T06:45:19;9.60;;;3.47;;
52368;SDS011;38298;50.346;3.526;2023-06-22T06:47:48;9.10;;;3.50;;
52368;SDS011;38298;50.346;3.526;2023-06-22T06:50:14;8.35;;;3.67;;
52368;SDS011;38298;50.346;3.526;2023-06-22T06:52:40;7.70;;;3.47;;
52368;SDS011;38298;50.346;3.526;2023-06-22T06:55:06;6.03;;;3.47;;
52368;SDS011;38298;50.346;3.526;2023-06-22T06:57:33;10.90;;;3.97;;
52368;SDS011;38298;50.346;3.526;2023-06-22T06:59:59;8.73;;;3.35;;
52368;SDS011;38298;50.346;3.526;2023-06-22T07:02:26;8.70;;;3.95;;
52368;SDS011;38298;50.346;3.526;2023-06-22T07:04:55;9.55;;;3.45;;
52368;SDS011;38298;50.346;3.526;2023-06-22T07:07:21;10.25;;;4.05;;
52368;SDS011;38298;50.346;3.526;2023-06-22T07:09:47;6.47;;;3.40;;
52368;SDS011;38298;50.346;3.526;2023-06-22T07:12:13;10.50;;;3.63;;
52368;SDS011;38298;50.346;3.526;2023-06-22T07:14:39;8.73;;;3.95;;
52368;SDS011;38298;50.346;3.526;2023-06-22T07:17:05;8.57;;;3.55;;
52368;SDS011;38298;50.346;3.526;2023-06-22T07:19:32;9.63;;;4.10;;
52368;SDS011;38298;50.346;3.526;2023-06-22T07:21:58;7.88;;;3.70;;
52368;SDS011;38298;50.346;3.526;2023-06-22T07:24:24;10.75;;;4.45;;
52368;SDS011;38298;50.346;3.526;2023-06-22T07:26:51;10.73;;;4.43;;
52368;SDS011;38298;50.346;3.526;2023-06-22T07:29:17;9.05;;;4.47;;
52368;SDS011;38298;50.346;3.526;2023-06-22T07:31:44;10.30;;;4.80;;
52368;SDS011;38298;50.346;3.526;2023-06-22T07:34:10;7.28;;;4.15;;
52368;SDS011;38298;50.346;3.526;2023-06-22T07:36:37;8.35;;;4.95;;
52368;SDS011;38298;50.346;3.526;2023-06-22T07:39:03;11.32;;;4.18;;
52368;SDS011;38298;50.346;3.526;2023-06-22T07:41:29;7.50;;;4.20;;
52368;SDS011;38298;50.346;3.526;2023-06-22T07:43:55;8.63;;;4.65;;
52368;SDS011;38298;50.346;3.526;2023-06-22T07:46:22;6.20;;;4.30;;
52368;SDS011;38298;50.346;3.526;2023-06-22T07:48:48;9.02;;;4.78;;
52368;SDS011;38298;50.346;3.526;2023-06-22T07:51:14;6.10;;;3.72;;
52368;SDS011;38298;50.346;3.526;2023-06-22T07:53:40;8.82;;;4.72;;
52368;SDS011;38298;50.346;3.526;2023-06-22T07:56:06;11.93;;;4.28;;
52368;SDS011;38298;50.346;3.526;2023-06-22T07:58:33;8.00;;;4.10;;
52368;SDS011;38298;50.346;3.526;2023-06-22T08:00:59;10.68;;;4.70;;
52368;SDS011;38298;50.346;3.526;2023-06-22T08:03:25;7.65;;;4.25;;
52368;SDS011;38298;50.346;3.526;2023-06-22T08:05:51;6.97;;;4.22;;
52368;SDS011;38298;50.346;3.526;2023-06-22T08:08:17;10.70;;;4.30;;
52368;SDS011;38298;50.346;3.526;2023-06-22T08:10:43;8.02;;;4.80;;
52368;SDS011;38298;50.346;3.526;2023-06-22T08:13:09;8.50;;;4.57;;
52368;SDS011;38298;50.346;3.526;2023-06-22T08:15:35;12.35;;;4.80;;
52368;SDS011;38298;50.346;3.526;2023-06-22T08:18:02;16.20;;;5.82;;
52368;SDS011;38298;50.346;3.526;2023-06-22T08:20:28;12.15;;;5.22;;
52368;SDS011;38298;50.346;3.526;2023-06-22T08:22:55;10.40;;;5.30;;
52368;SDS011;38298;50.346;3.526;2023-06-22T08:25:23;14.75;;;5.25;;
52368;SDS011;38298;50.346;3.526;2023-06-22T08:27:49;9.77;;;5.38;;
52368;SDS011;38298;50.346;3.526;2023-06-22T08:30:15;11.07;;;5.38;;
52368;SDS011;38298;50.346;3.526;2023-06-22T08:32:43;11.77;;;5.55;;
52368;SDS011;38298;50.346;3.526;2023-06-22T08:35:09;7.88;;;5.43;;
52368;SDS011;38298;50.346;3.526;2023-06-22T08:37:35;8.52;;;5.13;;
52368;SDS011;38298;50.346;3.526;2023-06-22T08:40:04;10.25;;;5.60;;
52368;SDS011;38298;50.346;3.526;2023-06-22T08:42:32;8.73;;;5.57;;
52368;SDS011;38298;50.346;3.526;2023-06-22T08:44:59;12.25;;;5.97;;
52368;SDS011;38298;50.346;3.526;2023-06-22T08:47:27;21.98;;;5.95;;
52368;SDS011;38298;50.346;3.526;2023-06-22T08:49:53;12.48;;;6.32;;
52368;SDS011;38298;50.346;3.526;2023-06-22T08:52:19;13.68;;;6.70;;
52368;SDS011;38298;50.346;3.526;2023-06-22T08:54:46;12.63;;;6.55;;
52368;SDS011;38298;50.346;3.526;2023-06-22T08:57:12;10.35;;;5.95;;
52368;SDS011;38298;50.346;3.526;2023-06-22T08:59:38;13.10;;;6.38;;
52368;SDS011;38298;50.346;3.526;2023-06-22T09:02:05;14.25;;;7.28;;
52368;SDS011;38298;50.346;3.526;2023-06-22T09:04:31;13.73;;;7.15;;
52368;SDS011;38298;50.346;3.526;2023-06-22T09:07:00;14.13;;;7.63;;
52368;SDS011;38298;50.346;3.526;2023-06-22T09:09:26;14.30;;;7.47;;
52368;SDS011;38298;50.346;3.526;2023-06-22T09:11:52;19.35;;;7.50;;
52368;SDS011;38298;50.346;3.526;2023-06-22T09:14:18;18.30;;;7.50;;
52368;SDS011;38298;50.346;3.526;2023-06-22T09:16:44;15.68;;;7.97;;
52368;SDS011;38298;50.346;3.526;2023-06-22T09:19:10;14.32;;;7.78;;
52368;SDS011;38298;50.346;3.526;2023-06-22T09:21:36;12.75;;;7.57;;
52368;SDS011;38298;50.346;3.526;2023-06-22T09:24:02;14.30;;;8.07;;
52368;SDS011;38298;50.346;3.526;2023-06-22T09:26:29;17.00;;;8.10;;
52368;SDS011;38298;50.346;3.526;2023-06-22T09:28:55;18.40;;;7.88;;
52368;SDS011;38298;50.346;3.526;2023-06-22T09:31:21;20.35;;;8.05;;
52368;SDS011;38298;50.346;3.526;2023-06-22T09:33:53;18.00;;;9.30;;
52368;SDS011;38298;50.346;3.526;2023-06-22T09:36:22;12.57;;;8.50;;
52368;SDS011;38298;50.346;3.526;2023-06-22T09:38:48;16.23;;;8.27;;
52368;SDS011;38298;50.346;3.526;2023-06-22T09:41:20;14.05;;;8.25;;
52368;SDS011;38298;50.346;3.526;2023-06-22T09:43:46;13.90;;;8.75;;
52368;SDS011;38298;50.346;3.526;2023-06-22T09:46:14;15.90;;;8.68;;
52368;SDS011;38298;50.346;3.526;2023-06-22T09:48:40;15.02;;;9.38;;
52368;SDS011;38298;50.346;3.526;2023-06-22T09:51:07;17.90;;;8.70;;
52368;SDS011;38298;50.346;3.526;2023-06-22T09:53:32;18.52;;;8.95;;
52368;SDS011;38298;50.346;3.526;2023-06-22T09:56:00;18.75;;;9.63;;
52368;SDS011;38298;50.346;3.526;2023-06-22T09:58:26;18.77;;;9.85;;
52368;SDS011;38298;50.346;3.526;2023-06-22T10:00:53;18.10;;;10.20;;
52368;SDS011;38298;50.346;3.526;2023-06-22T10:03:19;17.98;;;10.25;;
52368;SDS011;38298;50.346;3.526;2023-06-22T10:05:46;19.65;;;9.65;;
52368;SDS011;38298;50.346;3.526;2023-06-22T10:08:12;20.25;;;11.07;;
52368;SDS011;38298;50.346;3.526;2023-06-22T10:10:38;18.35;;;10.52;;
52368;SDS011;38298;50.346;3.526;2023-06-22T10:13:08;17.38;;;10.48;;
52368;SDS011;38298;50.346;3.526;2023-06-22T10:15:35;16.52;;;10.80;;
52368;SDS011;38298;50.346;3.526;2023-06-22T10:18:01;19.38;;;11.75;;
52368;SDS011;38298;50.346;3.526;2023-06-22T10:20:27;19.83;;;11.65;;
52368;SDS011;38298;50.346;3.526;2023-06-22T10:22:53;18.42;;;10.25;;
52368;SDS011;38298;50.346;3.526;2023-06-22T10:25:20;22.15;;;10.95;;
52368;SDS011;38298;50.346;3.526;2023-06-22T10:27:46;20.05;;;10.80;;
52368;SDS011;38298;50.346;3.526;2023-06-22T10:30:12;22.08;;;10.95;;
52368;SDS011;38298;50.346;3.526;2023-06-22T10:32:38;16.48;;;10.60;;
52368;SDS011;38298;50.346;3.526;2023-06-22T10:35:05;19.30;;;11.70;;
52368;SDS011;38298;50.346;3.526;2023-06-22T10:37:31;21.38;;;11.32;;
52368;SDS011;38298;50.346;3.526;2023-06-22T10:39:57;16.58;;;10.93;;
52368;SDS011;38298;50.346;3.526;2023-06-22T10:42:24;19.77;;;11.07;;
52368;SDS011;38298;50.346;3.526;2023-06-22T10:44:50;19.40;;;11.45;;
52368;SDS011;38298;50.346;3.526;2023-06-22T10:47:16;21.58;;;11.25;;
52368;SDS011;38298;50.346;3.526;2023-06-22T10:49:42;19.55;;;10.90;;
52368;SDS011;38298;50.346;3.526;2023-06-22T10:52:08;20.80;;;11.02;;
52368;SDS011;38298;50.346;3.526;2023-06-22T10:54:35;18.92;;;10.98;;
52368;SDS011;38298;50.346;3.526;2023-06-22T10:57:02;19.73;;;10.90;;
52368;SDS011;38298;50.346;3.526;2023-06-22T10:59:28;17.38;;;9.63;;
52368;SDS011;38298;50.346;3.526;2023-06-22T11:01:58;18.00;;;10.10;;
52368;SDS011;38298;50.346;3.526;2023-06-22T11:04:24;16.87;;;10.77;;
52368;SDS011;38298;50.346;3.526;2023-06-22T11:06:50;19.27;;;10.57;;
52368;SDS011;38298;50.346;3.526;2023-06-22T11:09:16;28.38;;;11.15;;
52368;SDS011;38298;50.346;3.526;2023-06-22T11:11:51;23.17;;;11.43;;
52368;SDS011;38298;50.346;3.526;2023-06-22T11:14:18;17.25;;;10.55;;
52368;SDS011;38298;50.346;3.526;2023-06-22T11:16:45;18.58;;;11.38;;
52368;SDS011;38298;50.346;3.526;2023-06-22T11:19:14;18.77;;;10.73;;
52368;SDS011;38298;50.346;3.526;2023-06-22T11:21:40;20.17;;;10.32;;
52368;SDS011;38298;50.346;3.526;2023-06-22T11:24:06;19.00;;;11.10;;
52368;SDS011;38298;50.346;3.526;2023-06-22T11:26:32;17.98;;;10.65;;
52368;SDS011;38298;50.346;3.526;2023-06-22T11:28:58;20.65;;;10.82;;
52368;SDS011;38298;50.346;3.526;2023-06-22T11:31:25;16.50;;;10.70;;
52368;SDS011;38298;50.346;3.526;2023-06-22T11:33:51;17.83;;;10.43;;
52368;SDS011;38298;50.346;3.526;2023-06-22T11:36:17;20.33;;;11.02;;
52368;SDS011;38298;50.346;3.526;2023-06-22T11:38:43;17.70;;;11.38;;
52368;SDS011;38298;50.346;3.526;2023-06-22T11:41:09;14.80;;;9.40;;
52368;SDS011;38298;50.346;3.526;2023-06-22T11:43:35;16.33;;;10.90;;
52368;SDS011;38298;50.346;3.526;2023-06-22T11:46:02;19.90;;;10.43;;
52368;SDS011;38298;50.346;3.526;2023-06-22T11:48:29;17.20;;;10.93;;
52368;SDS011;38298;50.346;3.526;2023-06-22T11:50:55;21.05;;;11.38;;
52368;SDS011;38298;50.346;3.526;2023-06-22T11:53:21;20.75;;;11.43;;
52368;SDS011;38298;50.346;3.526;2023-06-22T11:55:47;17.63;;;10.93;;
52368;SDS011;38298;50.346;3.526;2023-06-22T11:58:14;17.77;;;11.45;;
52368;SDS011;38298;50.346;3.526;2023-06-22T12:00:41;17.80;;;10.85;;
52368;SDS011;38298;50.346;3.526;2023-06-22T12:03:10;16.23;;;10.95;;
52368;SDS011;38298;50.346;3.526;2023-06-22T12:05:37;17.55;;;10.73;;
52368;SDS011;38298;50.346;3.526;2023-06-22T12:08:03;18.13;;;11.90;;
52368;SDS011;38298;50.346;3.526;2023-06-22T12:10:29;15.50;;;11.10;;
52368;SDS011;38298;50.346;3.526;2023-06-22T12:12:56;16.30;;;11.07;;
52368;SDS011;38298;50.346;3.526;2023-06-22T12:15:25;19.43;;;12.20;;
52368;SDS011;38298;50.346;3.526;2023-06-22T12:17:52;20.80;;;12.07;;
52368;SDS011;38298;50.346;3.526;2023-06-22T12:20:18;18.80;;;11.70;;
52368;SDS011;38298;50.346;3.526;2023-06-22T12:22:44;25.02;;;13.07;;
52368;SDS011;38298;50.346;3.526;2023-06-22T12:25:10;25.58;;;12.40;;
52368;SDS011;38298;50.346;3.526;2023-06-22T12:27:37;19.75;;;12.57;;
52368;SDS011;38298;50.346;3.526;2023-06-22T12:30:03;17.13;;;11.40;;
52368;SDS011;38298;50.346;3.526;2023-06-22T12:32:29;18.13;;;11.90;;
52368;SDS011;38298;50.346;3.526;2023-06-22T12:34:56;17.75;;;12.45;;
52368;SDS011;38298;50.346;3.526;2023-06-22T12:37:22;20.88;;;13.00;;
52368;SDS011;38298;50.346;3.526;2023-06-22T12:39:48;19.60;;;12.43;;
52368;SDS011;38298;50.346;3.526;2023-06-22T12:42:15;23.15;;;13.48;;
52368;SDS011;38298;50.346;3.526;2023-06-22T12:44:41;20.65;;;13.43;;
52368;SDS011;38298;50.346;3.526;2023-06-22T12:47:07;20.50;;;12.52;;
52368;SDS011;38298;50.346;3.526;2023-06-22T12:49:34;21.83;;;13.45;;
52368;SDS011;38298;50.346;3.526;2023-06-22T12:52:00;23.23;;;13.65;;
52368;SDS011;38298;50.346;3.526;2023-06-22T12:54:26;21.58;;;14.38;;
52368;SDS011;38298;50.346;3.526;2023-06-22T12:56:54;25.05;;;13.60;;
52368;SDS011;38298;50.346;3.526;2023-06-22T12:59:20;25.10;;;14.07;;
52368;SDS011;38298;50.346;3.526;2023-06-22T13:01:46;20.85;;;12.98;;
52368;SDS011;38298;50.346;3.526;2023-06-22T13:04:12;20.05;;;13.02;;
52368;SDS011;38298;50.346;3.526;2023-06-22T13:06:43;18.48;;;12.00;;
52368;SDS011;38298;50.346;3.526;2023-06-22T13:09:12;21.58;;;13.15;;
52368;SDS011;38298;50.346;3.526;2023-06-22T13:11:38;22.10;;;12.05;;
52368;SDS011;38298;50.346;3.526;2023-06-22T13:14:04;19.40;;;12.80;;
52368;SDS011;38298;50.346;3.526;2023-06-22T13:16:30;32.08;;;12.50;;
52368;SDS011;38298;50.346;3.526;2023-06-22T13:18:56;19.10;;;12.35;;
52368;SDS011;38298;50.346;3.526;2023-06-22T13:21:22;16.80;;;10.13;;
52368;SDS011;38298;50.346;3.526;2023-06-22T13:23:48;18.23;;;9.60;;
52368;SDS011;38298;50.346;3.526;2023-06-22T13:26:14;12.75;;;9.32;;
52368;SDS011;38298;50.346;3.526;2023-06-22T13:28:40;13.77;;;8.73;;
52368;SDS011;38298;50.346;3.526;2023-06-22T13:31:06;13.95;;;8.55;;
52368;SDS011;38298;50.346;3.526;2023-06-22T13:33:32;11.43;;;8.15;;
52368;SDS011;38298;50.346;3.526;2023-06-22T13:35:58;10.63;;;7.38;;
52368;SDS011;38298;50.346;3.526;2023-06-22T13:38:24;13.27;;;8.00;;
52368;SDS011;38298;50.346;3.526;2023-06-22T13:40:51;10.63;;;7.93;;
52368;SDS011;38298;50.346;3.526;2023-06-22T13:43:17;13.77;;;7.82;;
52368;SDS011;38298;50.346;3.526;2023-06-22T13:45:43;13.68;;;8.13;;
52368;SDS011;38298;50.346;3.526;2023-06-22T13:48:09;16.83;;;8.63;;
52368;SDS011;38298;50.346;3.526;2023-06-22T13:50:35;15.25;;;9.10;;
52368;SDS011;38298;50.346;3.526;2023-06-22T13:53:01;14.20;;;9.10;;
52368;SDS011;38298;50.346;3.526;2023-06-22T13:55:27;13.32;;;8.60;;
52368;SDS011;38298;50.346;3.526;2023-06-22T13:57:54;15.95;;;9.75;;
52368;SDS011;38298;50.346;3.526;2023-06-22T14:00:19;16.40;;;9.68;;
52368;SDS011;38298;50.346;3.526;2023-06-22T14:02:46;15.10;;;9.50;;
52368;SDS011;38298;50.346;3.526;2023-06-22T14:05:12;16.08;;;8.95;;
52368;SDS011;38298;50.346;3.526;2023-06-22T14:07:38;15.13;;;8.75;;
52368;SDS011;38298;50.346;3.526;2023-06-22T14:10:04;13.45;;;8.60;;
52368;SDS011;38298;50.346;3.526;2023-06-22T14:12:30;13.20;;;8.57;;
52368;SDS011;38298;50.346;3.526;2023-06-22T14:14:56;16.83;;;9.25;;
52368;SDS011;38298;50.346;3.526;2023-06-22T14:17:22;16.33;;;8.05;;
52368;SDS011;38298;50.346;3.526;2023-06-22T14:19:51;12.90;;;8.45;;
52368;SDS011;38298;50.346;3.526;2023-06-22T14:22:18;14.40;;;8.55;;
52368;SDS011;38298;50.346;3.526;2023-06-22T14:24:44;17.83;;;9.32;;
52368;SDS011;38298;50.346;3.526;2023-06-22T14:27:10;16.48;;;8.90;;
52368;SDS011;38298;50.346;3.526;2023-06-22T14:29:36;14.73;;;8.73;;
52368;SDS011;38298;50.346;3.526;2023-06-22T14:32:02;17.52;;;9.82;;
52368;SDS011;38298;50.346;3.526;2023-06-22T14:34:29;15.25;;;9.05;;
52368;SDS011;38298;50.346;3.526;2023-06-22T14:36:55;13.85;;;9.50;;
52368;SDS011;38298;50.346;3.526;2023-06-22T14:39:21;17.58;;;8.85;;
52368;SDS011;38298;50.346;3.526;2023-06-22T14:41:47;17.08;;;8.85;;